Time;durP1;ratioP1;P1;durP2;ratioP2;P2;SDS_P1;SDS_P2;PMS_P1;PMS_P2;Temp;Humidity;BMP_temperature;BMP_pressure;BME280_temperature;BME280_humidity;BME280_pressure;Samples;Min_cycle;Max_cycle;Signal;HPM_P1;HPM_P2
2023/10/02 00:01:58;;;;;;;12.00;7.82;;;14.40;99.90;;;-141.84;76.10;20326.03;4975690;28;20227;-63
2023/10/02 00:04:26;;;;;;;11.18;7.68;;;14.40;99.90;;;-141.84;76.56;20332.13;4984320;28;20219;-63
2023/10/02 00:07:06;;;;;;;12.55;7.72;;;14.40;99.90;;;-141.84;77.05;20332.13;4983678;28;20235;-64
2023/10/02 00:09:35;;;;;;;11.73;7.30;;;14.40;99.90;;;-141.84;77.33;20317.91;4984460;28;20350;-63
2023/10/02 00:12:11;;;;;;;14.82;8.25;;;14.30;99.90;;;-141.84;76.72;20324.00;4976670;28;20318;-64
2023/10/02 00:14:42;;;;;;;12.10;7.38;;;14.30;99.90;;;-141.84;77.01;20303.66;4984372;28;20314;-64
2023/10/02 00:17:14;;;;;;;11.93;7.65;;;14.30;99.90;;;-141.84;77.73;20309.75;4983805;28;20230;-64
2023/10/02 00:19:46;;;;;;;11.85;8.52;;;14.30;99.90;;;-141.84;77.26;20326.03;4973258;28;20563;-63
2023/10/02 00:25:00;;;;;;;13.40;8.27;;;14.30;99.90;;;-141.84;75.52;20328.06;5003482;28;20222;-64
2023/10/02 00:27:28;;;;;;;12.52;8.35;;;14.30;99.90;;;-141.84;75.47;20346.34;4986004;28;20285;-64
2023/10/02 00:29:59;;;;;;;11.10;7.55;;;14.30;99.90;;;-141.84;76.23;20305.69;4976385;28;20254;-63
2023/10/02 00:32:31;;;;;;;14.27;8.07;;;14.30;99.90;;;-141.84;76.60;20297.56;4983339;28;20227;-63
2023/10/02 00:35:04;;;;;;;10.98;7.13;;;14.30;99.90;;;-141.84;76.71;20281.31;4983147;28;20227;-63
2023/10/02 00:37:44;;;;;;;14.10;7.72;;;14.20;99.90;;;-141.84;74.69;20356.50;4983264;28;20222;-63
2023/10/02 00:40:20;;;;;;;14.95;8.43;;;14.30;99.90;;;-141.84;74.50;20352.44;4984382;28;20207;-63
2023/10/02 00:42:49;;;;;;;16.48;7.93;;;14.30;99.90;;;-141.84;74.59;20358.56;4983380;28;20233;-63
2023/10/02 00:45:19;;;;;;;12.00;8.00;;;14.40;99.90;;;-141.84;75.40;20342.28;4980431;28;20223;-64
2023/10/02 00:47:47;;;;;;;12.07;7.68;;;14.30;99.90;;;-141.84;75.22;20344.31;4965518;28;20310;-63
2023/10/02 00:50:18;;;;;;;13.65;7.82;;;14.30;99.90;;;-141.84;74.73;20336.19;4992649;28;20288;-63
2023/10/02 00:52:55;;;;;;;14.68;8.30;;;14.30;99.90;;;-141.84;74.52;20356.50;4991217;28;20737;-63
2023/10/02 00:55:26;;;;;;;12.82;8.80;;;14.30;99.90;;;-141.84;74.64;20362.63;4983605;28;20215;-64
2023/10/02 00:57:57;;;;;;;14.73;8.43;;;14.30;99.90;;;-141.84;74.57;20330.09;4976186;28;20231;-64
2023/10/02 01:00:35;;;;;;;12.65;8.20;;;14.30;99.90;;;-141.84;75.12;20315.88;4983386;28;20242;-65
2023/10/02 01:03:08;;;;;;;13.32;8.10;;;14.20;99.90;;;-141.84;74.44;20344.31;4982560;28;20321;-62
2023/10/02 01:05:42;;;;;;;13.05;8.80;;;14.30;99.90;;;-141.84;74.50;20338.22;4983084;28;20231;-64
2023/10/02 01:08:23;;;;;;;11.93;7.88;;;14.30;99.90;;;-141.84;74.94;20370.75;4976273;28;20735;-64
2023/10/02 01:10:57;;;;;;;13.65;8.13;;;14.30;99.90;;;-141.84;74.57;20324.00;4983258;28;20678;-64
2023/10/02 01:13:32;;;;;;;12.70;8.32;;;14.20;99.90;;;-141.84;74.50;20382.94;4984830;28;20679;-63
2023/10/02 01:16:07;;;;;;;15.10;8.63;;;14.20;99.90;;;-141.84;74.31;20376.84;4979419;28;20230;-63
2023/10/02 01:18:37;;;;;;;13.75;8.38;;;14.30;99.90;;;-141.84;74.99;20309.75;4985468;28;20238;-63
2023/10/02 01:21:11;;;;;;;13.98;8.43;;;14.20;99.90;;;-141.84;75.31;20297.56;5002191;28;20230;-64
2023/10/02 01:24:06;;;;;;;13.63;8.10;;;14.20;99.90;;;-141.84;75.74;20281.31;4989861;28;20234;-64
2023/10/02 01:26:40;;;;;;;11.48;8.07;;;14.00;99.90;;;-141.84;76.14;20260.97;4986747;28;20238;-65
2023/10/02 01:29:11;;;;;;;12.80;7.90;;;14.10;99.90;;;-141.84;76.42;20258.94;4987122;28;20226;-63
2023/10/02 01:31:45;;;;;;;13.90;8.53;;;14.00;99.90;;;-141.84;76.71;20275.22;4986902;28;20807;-63
2023/10/02 01:34:33;;;;;;;12.63;7.97;;;14.00;99.90;;;-141.84;76.95;20244.72;4984622;28;20195;-64
2023/10/02 01:37:32;;;;;;;11.15;7.70;;;14.00;99.90;;;-141.84;77.24;20230.50;4986997;28;20223;-63
2023/10/02 01:40:28;;;;;;;13.60;8.35;;;14.00;99.90;;;-141.84;76.49;20265.03;4979078;28;20259;-64
2023/10/02 01:42:43;;;;;;;12.05;8.18;;;13.90;99.90;;;-141.84;75.70;20309.75;4986861;28;20745;-63
2023/10/02 01:45:12;;;;;;;13.43;8.93;;;14.00;99.90;;;-141.84;75.82;20299.59;4984448;28;20234;-63
2023/10/02 01:47:41;;;;;;;12.20;7.47;;;14.00;99.90;;;-141.84;76.18;20273.19;4974969;28;20239;-63
2023/10/02 01:50:10;;;;;;;13.80;8.07;;;14.00;99.90;;;-141.84;76.56;20287.41;4988742;28;20238;-63
2023/10/02 01:52:38;;;;;;;13.75;8.40;;;14.00;99.90;;;-141.84;75.81;20309.75;4995857;28;20242;-64
2023/10/02 01:55:29;;;;;;;12.73;7.53;;;14.00;99.90;;;-141.84;75.01;20317.91;4987107;28;20207;-63
2023/10/02 01:58:16;;;;;;;14.77;8.10;;;14.00;99.90;;;-141.84;75.45;20277.25;4979212;28;20691;-64
2023/10/02 02:00:46;;;;;;;14.55;7.95;;;14.00;99.90;;;-141.84;74.62;20307.72;4986543;28;20330;-63
2023/10/02 02:03:17;;;;;;;13.43;8.70;;;14.10;99.90;;;-141.84;74.34;20348.38;4986387;28;20269;-65
2023/10/02 02:05:46;;;;;;;13.63;7.80;;;14.10;99.90;;;-141.84;74.40;20350.41;4983449;28;20227;-63
2023/10/02 02:08:24;;;;;;;14.63;8.43;;;14.10;99.90;;;-141.84;75.10;20332.13;4986750;28;20267;-63
2023/10/02 02:11:14;;;;;;;12.93;8.10;;;14.10;99.90;;;-141.84;75.84;20303.66;4986377;28;20313;-63
2023/10/02 02:13:47;;;;;;;12.23;8.23;;;14.10;99.90;;;-141.84;74.64;20336.19;4986349;28;20298;-64
2023/10/02 02:16:25;;;;;;;14.33;8.50;;;14.00;99.90;;;-141.84;74.08;20387.00;4987089;28;20208;-64
2023/10/02 02:18:54;;;;;;;10.93;8.05;;;;;;;-141.84;74.12;20350.41;4985701;28;20297;-64
2023/10/02 02:21:25;;;;;;;13.18;8.15;;;;;;;-141.84;73.87;20370.75;5004124;28;20227;-63
2023/10/02 02:24:04;;;;;;;11.52;7.82;;;;;;;-141.84;74.64;20328.06;4978079;28;20607;-63
2023/10/02 02:26:37;;;;;;;11.68;7.70;;;;;;;-141.84;75.00;20352.44;4985739;28;20325;-63
2023/10/02 02:29:23;;;;;;;11.35;7.75;;;;;;;-141.84;75.34;20350.41;4985464;28;20239;-64
2023/10/02 02:31:54;;;;;;;15.10;7.97;;;;;;;-141.84;75.73;20258.94;4977870;28;20231;-64
2023/10/02 02:34:25;;;;;;;13.68;7.82;;;;;;;-141.84;75.96;20305.69;4986356;28;20200;-64
2023/10/02 02:36:57;;;;;;;12.52;8.00;;;;;;;-141.84;75.26;20297.56;4985756;28;20235;-64
2023/10/02 02:39:25;;;;;;;13.02;8.00;;;;;;;-141.84;75.76;20319.94;4985836;28;20235;-63
2023/10/02 02:42:22;;;;;;;12.80;8.15;;;14.10;99.90;;;-141.84;75.26;20311.78;4977827;28;20314;-63
2023/10/02 02:44:50;;;;;;;13.02;7.93;;;14.10;99.90;;;-141.84;73.79;20360.59;4985720;28;20231;-64
2023/10/02 02:47:21;;;;;;;11.55;7.60;;;14.20;99.90;;;-141.84;73.53;20346.34;4985885;28;20219;-63
2023/10/02 02:49:58;;;;;;;13.32;8.38;;;14.20;99.90;;;-141.84;72.82;20362.63;4983998;28;20207;-63
2023/10/02 02:52:32;;;;;;;12.00;7.43;;;14.30;99.90;;;-141.84;72.40;20391.06;4996954;28;20218;-64
2023/10/02 02:55:05;;;;;;;14.07;7.97;;;14.40;99.90;;;-141.84;72.02;20435.78;4985547;28;20392;-64
2023/10/02 02:57:39;;;;;;;12.80;7.68;;;;;;;-141.84;72.40;20413.44;4985520;28;20723;-63
2023/10/02 03:00:31;;;;;;;11.60;7.47;;;;;;;-141.84;71.92;20419.53;4977317;28;20431;-64
2023/10/02 03:03:02;;;;;;;13.10;7.72;;;;;;;-141.84;71.74;20423.59;4985607;28;20235;-63
2023/10/02 03:05:40;;;;;;;11.38;7.43;;;;;;;-141.84;71.34;20435.78;4985288;28;20778;-64
2023/10/02 03:08:11;;;;;;;12.13;7.95;;;;;;;-141.84;71.00;20472.38;4976878;28;20330;-63
2023/10/02 03:10:40;;;;;;;9.88;7.10;;;;;;;-141.84;71.80;20441.88;4985315;28;20291;-63
2023/10/02 03:13:16;;;;;;;12.02;7.68;;;;;;;-141.84;71.18;20443.91;4985656;28;20211;-64
2023/10/02 03:15:48;;;;;;;10.32;7.18;;;;;;;-141.84;71.26;20452.06;4985331;28;20537;-64
2023/10/02 03:18:30;;;;;;;11.48;7.43;;;;;;;-141.84;71.74;20458.16;4985078;28;20286;-63
2023/10/02 03:21:06;;;;;;;11.05;7.45;;;;;;;-141.84;71.67;20439.84;5000108;28;20238;-64
2023/10/02 03:23:34;;;;;;;10.63;6.93;;;;;;;-141.84;71.41;20452.06;5005024;28;20230;-63
2023/10/02 03:26:07;;;;;;;10.55;7.55;;;;;;;-141.84;71.82;20441.88;4996876;28;20230;-63
2023/10/02 03:28:39;;;;;;;10.85;7.20;;;;;;;-141.84;71.16;20490.66;5004437;28;20231;-64
2023/10/02 03:31:16;;;;;;;14.02;7.70;;;;;;;-141.84;71.32;20464.25;4994219;28;20203;-63
2023/10/02 03:33:45;;;;;;;11.98;7.05;;;;;;;-141.84;70.62;20478.47;4983250;28;20285;-64
2023/10/02 03:36:20;;;;;;;12.25;7.53;;;;;;;-141.84;70.53;20508.97;4981537;28;20349;-63
2023/10/02 03:38:51;;;;;;;13.65;7.55;;;;;;;-141.84;71.01;20460.19;4985354;28;20337;-64
2023/10/02 03:41:20;;;;;;;9.80;7.13;;;;;;;-141.84;70.36;20506.94;4984414;28;20231;-64
2023/10/02 03:43:50;;;;;;;12.90;7.28;;;;;;;-141.84;70.38;20452.06;4976784;28;20746;-62
2023/10/02 03:46:23;;;;;;;12.90;7.47;;;;;;;-141.84;71.02;20441.88;4984899;28;20226;-64
2023/10/02 03:48:58;;;;;;;14.30;6.75;;;;;;;-141.84;70.72;20452.06;4984934;28;20242;-64
2023/10/02 03:51:40;;;;;;;10.52;6.72;;;;;;;-141.84;70.03;20506.94;5002698;28;20245;-63
2023/10/02 03:54:18;;;;;;;10.30;6.82;;;;;;;-141.84;70.43;20494.75;4957595;28;20795;-64
2023/10/02 03:56:51;;;;;;;11.18;6.75;;;;;;;-141.84;70.68;20494.75;4969568;28;20254;-64
2023/10/02 03:59:25;;;;;;;12.45;7.28;;;;;;;-141.84;70.81;20445.94;4974721;28;20323;-64
2023/10/02 04:01:57;;;;;;;10.80;7.15;;;;;;;-141.84;71.72;20445.94;4966462;28;20223;-64
2023/10/02 04:04:32;;;;;;;11.13;6.95;;;;;;;-141.84;72.45;20409.38;4973560;28;20204;-64
2023/10/02 04:07:01;;;;;;;11.57;6.97;;;;;;;-141.84;72.01;20389.03;4973054;28;20666;-63
2023/10/02 04:09:30;;;;;;;11.40;7.20;;;;;;;-141.84;70.83;20460.19;4973004;28;20235;-64
2023/10/02 04:12:04;;;;;;;12.45;7.00;;;;;;;-141.84;71.99;20419.53;4964428;28;20246;-63
2023/10/02 04:14:38;;;;;;;11.00;7.03;;;;;;;-141.84;71.90;20409.38;4975416;28;20286;-64
2023/10/02 04:17:13;;;;;;;16.50;6.82;;;;;;;-141.84;72.16;20409.38;4972719;28;20330;-63
2023/10/02 04:19:48;;;;;;;9.88;6.82;;;;;;;-141.84;72.48;20389.03;4987133;28;20637;-64
2023/10/02 04:22:19;;;;;;;10.95;6.85;;;;;;;-141.84;72.49;20419.53;5003997;28;20364;-64
2023/10/02 04:24:54;;;;;;;10.77;6.78;;;;;;;-141.84;71.39;20441.88;5003243;28;20726;-65
2023/10/02 04:27:25;;;;;;;9.98;6.95;;;;;;;-141.84;71.80;20407.34;5003326;28;20234;-64
2023/10/02 04:30:22;;;;;;;10.05;6.70;;;;;;;-141.84;70.66;20464.25;4994931;28;20603;-64
2023/10/02 04:32:51;;;;;;;11.20;6.40;;;;;;;-141.84;71.47;20482.53;4983589;28;20326;-64
2023/10/02 04:38:09;;;;;;;11.40;6.13;;;;;;;-141.84;71.90;20421.56;4977105;28;20227;-64
2023/10/02 04:40:44;;;;;;;10.98;6.45;;;;;;;-141.84;71.48;20443.91;4983525;28;20209;-64
2023/10/02 04:43:19;;;;;;;12.07;6.82;;;;;;;-141.84;71.80;20435.78;4984257;28;20217;-64
2023/10/02 04:45:52;;;;;;;10.93;6.20;;;;;;;-141.84;70.15;20506.94;4976615;28;20231;-64
2023/10/02 04:48:26;;;;;;;11.55;7.00;;;;;;;-141.84;70.33;20478.47;4982720;28;20262;-64
2023/10/02 04:50:56;;;;;;;10.10;6.82;;;;;;;-141.84;71.35;20474.41;4981855;28;20230;-63
2023/10/02 04:53:25;;;;;;;10.70;6.47;;;;;;;-141.84;71.36;20484.56;4983327;28;20314;-64
2023/10/02 04:56:07;;;;;;;10.95;6.72;;;;;;;-141.84;70.50;20482.53;4976216;28;20306;-63
2023/10/02 04:58:47;;;;;;;10.63;6.82;;;;;;;-141.84;69.88;20527.25;4983598;28;20207;-64
2023/10/02 05:01:28;;;;;;;9.00;6.63;;;;;;;-141.84;71.16;20506.94;4983353;28;20223;-64
2023/10/02 05:04:02;;;;;;;9.25;6.43;;;;;;;-141.84;69.81;20502.88;4975766;28;20290;-64
2023/10/02 05:06:52;;;;;;;11.18;6.50;;;;;;;-141.84;70.79;20500.84;4983319;28;20227;-64
2023/10/02 05:09:25;;;;;;;10.60;7.10;;;;;;;-141.84;70.57;20525.22;4964442;28;20242;-64
2023/10/02 05:12:03;;;;;;;9.65;6.32;;;;;;;-141.84;68.55;20592.31;4969726;28;20237;-64
2023/10/02 05:14:33;;;;;;;10.32;6.78;;;;;;;-141.84;68.89;20541.50;4983681;28;20313;-64
2023/10/02 05:17:38;;;;;;;9.60;6.32;;;;;;;-141.84;70.01;20557.75;4983020;28;20223;-64
2023/10/02 05:20:13;;;;;;;8.75;6.30;;;;;;;-141.84;70.56;20515.06;4963579;28;20238;-64
2023/10/02 05:22:43;;;;;;;10.25;6.43;;;;;;;-141.84;70.80;20508.97;4983360;28;20240;-64
2023/10/02 05:25:18;;;;;;;8.13;6.22;;;;;;;-141.84;71.03;20484.56;4981739;28;20323;-64
2023/10/02 05:27:47;;;;;;;9.38;6.15;;;;;;;-141.84;70.99;20472.38;4979930;28;20270;-63
2023/10/02 05:30:18;;;;;;;9.85;6.47;;;;;;;-141.84;71.35;20480.50;4982950;28;20716;-64
2023/10/02 05:32:48;;;;;;;8.70;5.88;;;;;;;-141.84;71.41;20496.78;4974723;28;20230;-63
2023/10/02 05:35:23;;;;;;;9.23;6.20;;;;;;;-141.84;71.27;20504.91;4971208;28;20227;-63
2023/10/02 05:37:54;;;;;;;12.00;6.40;;;;;;;-141.84;71.78;20472.38;4966547;28;20238;-65
2023/10/02 05:40:38;;;;;;;8.75;5.55;;;;;;;-141.84;71.34;20456.13;4983603;28;20207;-63
2023/10/02 05:43:17;;;;;;;12.00;6.82;;;;;;;-141.84;70.91;20490.66;4963916;28;20232;-63
2023/10/02 05:45:50;;;;;;;9.73;5.95;;;;;;;-141.84;71.26;20496.78;4968261;28;20227;-63
2023/10/02 05:48:28;;;;;;;9.73;6.22;;;;;;;-141.84;70.11;20547.59;4981309;28;20235;-63
2023/10/02 05:50:59;;;;;;;9.80;6.38;;;;;;;-141.84;71.16;20488.63;4973488;28;20235;-63
2023/10/02 05:53:34;;;;;;;9.90;6.18;;;;;;;-141.84;70.80;20525.22;4978353;28;20227;-63
2023/10/02 05:56:12;;;;;;;10.60;6.15;;;;;;;-141.84;70.59;20508.97;4956440;28;20424;-63
2023/10/02 05:58:43;;;;;;;9.25;6.50;;;;;;;-141.84;71.46;20492.72;4967205;28;20214;-63
2023/10/02 06:01:23;;;;;;;9.20;6.70;;;;;;;-141.84;70.50;20537.44;4981558;28;20238;-64
2023/10/02 06:19:45;;;;;;;9.88;6.10;;;14.90;99.90;;;-141.84;71.62;20517.09;5083682;28;20646;-63
2023/10/02 06:22:14;;;;;;;9.93;6.63;;;15.10;99.90;;;-141.84;70.58;20588.25;5061988;28;20196;-62
2023/10/02 06:24:43;;;;;;;10.68;6.88;;;15.10;99.90;;;-141.84;70.77;20539.47;5060627;28;20229;-63
2023/10/02 06:27:14;;;;;;;8.70;6.13;;;15.20;99.90;;;-141.84;70.78;20515.06;5058967;28;20514;-62
2023/10/02 06:29:47;;;;;;;9.98;6.43;;;15.20;99.90;;;-141.84;70.66;20527.25;5065683;28;20201;-62
2023/10/02 06:32:19;;;;;;;8.30;5.75;;;15.30;99.90;;;-141.84;70.18;20555.72;5065234;28;20258;-61
2023/10/02 06:34:50;;;;;;;9.85;6.22;;;15.40;99.90;;;-141.84;69.91;20578.09;5056346;28;20193;-62
2023/10/02 06:37:25;;;;;;;9.13;6.00;;;15.40;99.90;;;-141.84;68.69;20604.50;5061688;28;20314;-62
2023/10/02 06:40:04;;;;;;;9.38;6.38;;;15.50;99.90;;;-141.84;68.26;20616.69;5056051;28;20197;-64
2023/10/02 06:42:34;;;;;;;9.95;6.28;;;15.60;99.90;;;-141.84;68.08;20622.81;5055526;28;20188;-63
2023/10/02 06:45:03;;;;;;;9.82;6.25;;;15.70;99.90;;;-141.84;67.92;20667.53;5056456;28;20224;-65
2023/10/02 06:47:34;;;;;;;9.02;5.78;;;15.80;99.90;;;-141.84;67.89;20630.94;5055220;28;20319;-67
2023/10/02 06:50:23;;;;;;;12.57;6.70;;;15.90;99.90;;;-141.84;67.64;20679.72;5028176;28;20281;-62
2023/10/02 06:52:54;;;;;;;9.55;5.65;;;15.90;99.90;;;-141.84;67.46;20643.13;4999784;28;20242;-64
2023/10/02 06:55:24;;;;;;;9.95;6.18;;;16.00;99.90;;;-141.84;66.94;20683.78;4995997;28;20257;-65
2023/10/02 06:57:53;;;;;;;8.27;5.90;;;16.00;99.90;;;-141.84;66.20;20700.03;4988199;28;20225;-63
2023/10/02 07:00:25;;;;;;;7.85;5.53;;;16.20;99.90;;;-141.84;66.45;20720.38;4997788;28;20312;-61
2023/10/02 07:02:57;;;;;;;10.27;6.10;;;16.20;99.90;;;-141.84;65.35;20728.50;4996049;28;20199;-61
2023/10/02 07:05:32;;;;;;;7.90;5.68;;;16.30;99.90;;;-141.84;65.72;20730.53;4995346;28;20211;-65
2023/10/02 07:08:17;;;;;;;7.63;5.68;;;16.40;99.90;;;-141.84;64.42;20771.19;4984776;28;20250;-64
2023/10/02 07:10:47;;;;;;;8.77;5.65;;;16.50;99.90;;;-141.84;65.29;20779.31;4991004;28;20226;-64
2023/10/02 07:13:20;;;;;;;9.00;6.03;;;16.50;99.90;;;-141.84;65.22;20765.09;4989099;28;20629;-64
2023/10/02 07:15:53;;;;;;;8.88;5.47;;;16.60;99.90;;;-141.84;65.12;20785.44;4993395;28;20230;-63
2023/10/02 07:18:21;;;;;;;8.13;5.03;;;16.60;99.90;;;-141.84;64.88;20801.69;4990901;28;20652;-63
2023/10/02 07:20:53;;;;;;;8.68;5.88;;;16.70;99.90;;;-141.84;64.60;20838.28;4983389;28;20783;-62
2023/10/02 07:23:22;;;;;;;8.10;5.60;;;16.80;99.90;;;-141.84;64.36;20840.31;4984725;28;20200;-63
2023/10/02 07:25:51;;;;;;;12.18;6.00;;;16.80;99.90;;;-141.84;64.14;20858.59;4984268;28;20637;-62
2023/10/02 07:28:21;;;;;;;11.30;6.10;;;17.00;99.90;;;-141.84;63.69;20883.00;4977151;28;20338;-63
2023/10/02 07:30:50;;;;;;;9.40;5.50;;;17.00;99.90;;;-141.84;63.76;20862.69;4984662;28;20751;-64
2023/10/02 07:33:20;;;;;;;10.73;5.68;;;17.10;99.90;;;-141.84;63.52;20891.13;4984559;28;20239;-63
2023/10/02 07:35:54;;;;;;;10.18;5.85;;;17.20;99.90;;;-141.84;62.96;20927.72;4984669;28;20212;-62
2023/10/02 07:38:30;;;;;;;9.52;5.63;;;17.30;99.90;;;-141.84;62.48;20927.72;4976937;28;20215;-63
2023/10/02 07:41:06;;;;;;;8.88;5.55;;;17.40;99.90;;;-141.84;62.46;20978.56;4977268;28;20690;-63
2023/10/02 07:43:35;;;;;;;8.73;6.13;;;17.60;99.90;;;-141.84;62.15;20984.66;4984547;28;20601;-62
2023/10/02 07:46:14;;;;;;;10.68;8.02;;;17.70;99.90;;;-141.84;62.25;21023.28;4976642;28;20267;-62
2023/10/02 07:48:53;;;;;;;9.60;6.15;;;17.70;99.90;;;-141.84;62.24;21025.31;4993412;28;20234;-65
2023/10/02 07:51:30;;;;;;;7.18;5.47;;;17.80;99.90;;;-141.84;61.70;21049.72;5003757;28;20246;-65
2023/10/02 07:53:59;;;;;;;7.93;5.53;;;17.90;99.90;;;-141.84;61.31;21049.72;4996460;28;20297;-65
2023/10/02 07:56:29;;;;;;;7.85;6.05;;;18.00;99.90;;;-141.84;61.14;21070.03;5004602;28;20211;-64
2023/10/02 07:59:01;;;;;;;11.20;5.45;;;18.10;99.90;;;-141.84;60.40;21090.38;4985198;28;20234;-63
2023/10/02 08:01:33;;;;;;;9.32;5.82;;;18.10;99.90;;;-141.84;60.01;21112.72;4984469;28;20610;-62
2023/10/02 08:04:02;;;;;;;8.98;5.57;;;18.30;99.90;;;-141.84;59.48;21141.19;4974857;28;20314;-65
2023/10/02 08:06:36;;;;;;;6.88;4.72;;;18.40;99.90;;;-141.84;59.13;21179.81;4984861;28;20231;-62
2023/10/02 08:09:36;;;;;;;10.18;5.57;;;18.50;99.90;;;-141.84;59.01;21185.91;4984250;28;20249;-64
2023/10/02 08:12:08;;;;;;;9.48;5.50;;;18.60;99.90;;;-141.84;57.83;21226.59;4975940;28;20601;-64
2023/10/02 08:14:40;;;;;;;8.90;5.50;;;18.80;99.90;;;-141.84;58.28;21246.91;4983583;28;20255;-63
2023/10/02 08:17:18;;;;;;;6.70;4.80;;;18.80;99.90;;;-141.84;58.18;21236.75;4984447;28;20691;-65
2023/10/02 08:19:56;;;;;;;8.43;6.13;;;18.90;99.90;;;-141.84;57.89;21303.84;4983901;28;20235;-66
2023/10/02 08:22:35;;;;;;;8.18;5.28;;;19.00;99.90;;;-141.84;57.81;21324.19;4984215;28;20301;-63
2023/10/02 08:25:13;;;;;;;12.15;6.05;;;19.10;99.90;;;-141.84;56.79;21311.97;4984516;28;20302;-63
2023/10/02 08:27:43;;;;;;;9.63;6.00;;;19.20;99.90;;;-141.84;56.75;21303.84;4983514;28;20580;-63
2023/10/02 08:30:28;;;;;;;10.77;5.85;;;19.20;99.90;;;-141.84;57.36;21326.22;4975829;28;20247;-65
2023/10/02 08:33:05;;;;;;;9.70;6.22;;;19.20;99.90;;;-141.84;57.18;21352.63;4982002;28;20243;-61
2023/10/02 08:35:47;;;;;;;8.55;6.25;;;19.20;99.90;;;-141.84;57.54;21293.69;4983580;28;20216;-61
2023/10/02 08:38:22;;;;;;;8.32;5.85;;;19.20;99.90;;;-141.84;57.31;21324.19;4976685;28;20233;-61
2023/10/02 08:40:57;;;;;;;9.88;6.32;;;19.20;99.90;;;-141.84;56.60;21407.53;4983376;28;20270;-62
2023/10/02 08:43:26;;;;;;;11.52;6.40;;;19.30;99.90;;;-141.84;57.05;21375.00;4983276;28;20257;-61
2023/10/02 08:45:55;;;;;;;10.85;6.00;;;19.40;99.90;;;-141.84;56.51;21419.72;4982372;28;20321;-61
2023/10/02 08:48:25;;;;;;;10.85;6.00;;;19.50;99.90;;;-141.84;56.08;21456.34;4980495;28;20292;-61
2023/10/02 08:50:58;;;;;;;7.93;5.43;;;19.50;99.90;;;-141.84;56.02;21411.59;4983054;28;20207;-63
2023/10/02 08:53:27;;;;;;;8.15;5.70;;;19.60;99.90;;;-141.84;56.21;21415.66;4983906;28;20203;-62
2023/10/02 08:56:23;;;;;;;7.65;5.32;;;19.70;99.90;;;-141.84;55.67;21464.47;4981935;28;20597;-66
2023/10/02 08:59:16;;;;;;;8.60;5.82;;;19.80;99.90;;;-141.84;55.85;21515.28;4965419;28;20259;-63
2023/10/02 09:01:40;;;;;;;8.73;6.05;;;19.90;99.90;;;-141.84;55.40;21537.66;4962184;28;20240;-65
2023/10/02 09:07:22;;;;;;;9.45;5.57;;;20.20;99.90;;;-141.84;55.21;21547.81;4941834;28;20651;-63
2023/10/02 09:12:50;;;;;;;9.27;5.75;;;20.20;99.90;;;-141.84;54.97;21604.75;5121228;27;20611;-63
2023/10/02 09:15:29;;;;;;;9.32;5.70;;;20.50;99.90;;;-141.84;54.20;21665.75;5092657;28;20226;-63
2023/10/02 09:18:19;;;;;;;10.38;5.93;;;20.60;99.90;;;-141.84;54.36;21669.81;5091415;28;20682;-63
2023/10/02 09:20:53;;;;;;;8.05;6.05;;;20.70;99.90;;;-141.84;54.08;21653.56;5099185;28;20200;-65
2023/10/02 09:23:27;;;;;;;9.02;5.70;;;20.80;99.90;;;-141.84;54.00;21659.66;5099209;28;20285;-63
2023/10/02 09:26:17;;;;;;;10.40;6.18;;;20.80;99.90;;;-141.84;53.61;21700.31;5070315;28;20225;-62
2023/10/02 09:28:58;;;;;;;11.20;6.32;;;20.80;99.90;;;-141.84;53.43;21718.63;5051698;28;20232;-63
2023/10/02 09:31:30;;;;;;;10.48;6.07;;;20.90;99.90;;;-141.84;53.59;21724.72;5038235;28;20222;-64
2023/10/02 09:34:10;;;;;;;9.25;6.15;;;21.00;99.90;;;-141.84;52.87;21773.53;5031244;28;20225;-64
2023/10/02 09:37:11;;;;;;;8.82;6.30;;;21.10;99.90;;;-141.84;53.31;21787.75;5050356;28;20232;-63
2023/10/02 09:40:02;;;;;;;9.85;7.10;;;21.20;99.90;;;-141.84;53.43;21773.53;5053042;28;20622;-67
2023/10/02 09:42:37;;;;;;;9.98;6.50;;;21.20;99.90;;;-141.84;53.73;21755.22;5067016;28;20323;-62
2023/10/02 09:45:09;;;;;;;11.05;6.25;;;21.10;99.90;;;-141.84;53.20;21777.59;5038880;28;20311;-62
2023/10/02 09:47:38;;;;;;;8.95;6.28;;;21.20;99.90;;;-141.84;53.11;21753.19;5055254;28;20244;-61
2023/10/02 09:50:26;;;;;;;11.50;6.50;;;21.20;99.90;;;-141.84;53.57;21781.66;5039909;28;20227;-65
2023/10/02 09:53:01;;;;;;;9.05;6.22;;;21.30;99.90;;;-141.84;53.54;21808.09;5076105;28;20733;-64
2023/10/02 09:55:58;;;;;;;11.45;6.90;;;21.40;99.90;;;-141.84;52.51;21856.91;5057439;28;20228;-69
2023/10/02 09:58:35;;;;;;;9.98;6.55;;;21.50;99.90;;;-141.84;52.20;21968.72;5056176;28;20216;-64
2023/10/02 10:01:37;;;;;;;11.38;6.85;;;21.80;99.90;;;-141.84;52.63;21899.59;5054340;28;20220;-63
2023/10/02 10:04:31;;;;;;;9.40;6.80;;;21.80;99.90;;;-141.84;51.83;21936.19;5049947;28;20516;-65
2023/10/02 10:07:09;;;;;;;12.27;7.22;;;21.80;99.90;;;-141.84;52.89;21844.69;5056647;28;20239;-62
2023/10/02 10:09:53;;;;;;;11.57;7.90;;;21.70;99.90;;;-141.84;52.78;21867.06;5056052;28;20224;-63
2023/10/02 10:15:27;;;;;;;14.43;7.65;;;21.80;99.90;;;-141.84;52.25;21938.22;5054977;28;20296;-63
2023/10/02 10:18:03;;;;;;;11.70;7.80;;;21.90;99.90;;;-141.84;51.64;21991.09;5057096;28;20270;-62
2023/10/02 10:20:31;;;;;;;13.45;8.02;;;22.00;99.90;;;-141.84;51.12;22021.59;5058313;28;20200;-62
2023/10/02 10:23:31;;;;;;;12.15;8.20;;;22.20;99.90;;;-141.84;51.09;22037.88;5049985;28;20225;-62
2023/10/02 10:26:07;;;;;;;13.35;8.35;;;22.30;99.90;;;-141.84;49.86;22098.88;5035317;28;20233;-64
2023/10/02 10:28:50;;;;;;;13.60;8.25;;;22.40;99.90;;;-141.84;50.17;22086.69;5044750;28;20228;-63
2023/10/02 10:31:28;;;;;;;13.80;8.77;;;22.50;99.90;;;-141.84;49.90;22139.56;5044443;28;20238;-64
2023/10/02 10:33:59;;;;;;;12.80;8.38;;;22.60;99.90;;;-141.84;50.18;22115.16;5042433;28;20238;-63
2023/10/02 10:36:39;;;;;;;13.40;8.40;;;22.60;99.90;;;-141.84;49.09;22202.59;5043920;28;20711;-63
2023/10/02 10:40:40;;;;;;;13.13;8.38;;;22.80;99.90;;;-141.84;49.69;22206.66;5042432;28;20746;-62
2023/10/02 10:42:59;;;;;;;11.68;7.70;;;22.90;99.90;;;-141.84;48.93;22172.09;4970865;28;20282;-62
2023/10/02 10:45:33;;;;;;;11.25;8.13;;;22.90;99.90;;;-141.84;48.46;22157.84;4980954;28;20227;-63
2023/10/02 10:48:01;;;;;;;13.18;7.85;;;22.90;99.90;;;-141.84;49.03;22139.56;5011732;28;20319;-63
2023/10/02 10:50:32;;;;;;;14.18;7.85;;;22.90;99.90;;;-141.84;48.91;22214.78;5046356;28;20263;-65
2023/10/02 10:53:26;;;;;;;10.68;7.50;;;23.00;99.90;;;-141.84;48.69;22220.91;5045736;28;20236;-63
2023/10/02 10:55:54;;;;;;;12.82;7.55;;;23.00;99.90;;;-141.84;48.24;22235.13;5038261;28;20232;-63
2023/10/02 10:58:31;;;;;;;10.43;7.75;;;23.10;99.90;;;-141.84;48.74;22188.34;5040474;28;20346;-62
2023/10/02 11:01:02;;;;;;;11.80;7.32;;;23.10;99.90;;;-141.84;48.48;22281.91;5041394;28;20221;-63
2023/10/02 11:03:31;;;;;;;11.48;6.80;;;23.20;99.90;;;-141.84;47.83;22298.16;5043298;28;20232;-63
2023/10/02 11:06:06;;;;;;;12.38;7.63;;;23.40;99.90;;;-141.84;48.03;22294.09;5035141;28;20247;-63
2023/10/02 11:08:37;;;;;;;12.23;8.05;;;23.40;99.90;;;-141.84;47.56;22314.44;5040540;28;20546;-62
2023/10/02 11:11:18;;;;;;;11.50;7.63;;;23.40;99.90;;;-141.84;47.22;22361.22;5041334;28;20288;-64
2023/10/02 11:13:54;;;;;;;11.68;7.43;;;23.50;99.90;;;-141.84;47.25;22346.97;5038647;28;20227;-64
2023/10/02 11:16:36;;;;;;;12.20;7.72;;;23.50;99.90;;;-141.84;46.83;22477.13;5042686;28;20240;-63
2023/10/02 11:19:25;;;;;;;11.10;7.40;;;23.70;99.90;;;-141.84;46.67;22424.25;5039896;28;20229;-63
2023/10/02 11:22:16;;;;;;;11.85;7.90;;;23.80;99.90;;;-141.84;46.84;22456.81;5043023;28;20295;-63
2023/10/02 11:25:17;;;;;;;12.80;7.68;;;23.90;99.90;;;-141.84;46.45;22464.94;5039723;28;20229;-64
2023/10/02 11:27:56;;;;;;;9.10;6.63;;;23.90;99.90;;;-141.84;46.77;22432.41;5043239;28;20628;-63
2023/10/02 11:30:32;;;;;;;14.32;7.78;;;23.90;99.90;;;-141.84;46.77;22420.19;5043528;28;20224;-63